Monday, December 18, 2017, 3:33 PM EST
Back to Local

KW99, Petersburg, Grant County Airport

Location: Petersburg, WV, United States Lat: 38.983
Local Time: 3:33 PM EST (20:33 GMT) Lon: -79.133
Time Zone: US/Eastern Elev: 961 ft

Show me the last for .
Show Decoded

2017-12-18 15:10 METAR KW99 182010Z AUTO 28010G15KT 10SM BKN043 OVC049 13/04 A2997 RMK AO2
                 T01250043 =
2017-12-18 14:50 METAR KW99 181950Z AUTO 29009G21KT 10SM OVC043 13/04 A2997 RMK AO2 T01250044 =
2017-12-18 14:30 METAR KW99 181930Z AUTO 26010KT 10SM BKN041 OVC048 13/05 A2997 RMK AO2 T01260045
                 =
2017-12-18 14:10 METAR KW99 181910Z AUTO 28009G15KT 10SM OVC040 13/05 A2997 RMK AO2 T01250046 =
2017-12-18 13:50 METAR KW99 181850Z AUTO 24008KT 10SM OVC038 13/05 A2998 RMK AO2 T01250048 =
2017-12-18 13:30 METAR KW99 181830Z AUTO 26009G17KT 10SM OVC038 12/05 A2999 RMK AO2 T01200045 =
2017-12-18 13:10 METAR KW99 181810Z AUTO 32003KT 10SM BKN038 OVC046 12/05 A3000 RMK AO2 T01160046
                 =
2017-12-18 12:50 METAR KW99 181750Z AUTO 29008KT 10SM BKN040 BKN050 12/05 A3001 RMK AO2 T01170045
                 10128 20023 =
2017-12-18 12:30 METAR KW99 181730Z AUTO 28013G17KT 10SM SCT040 SCT046 12/04 A3001 RMK AO2
                 T01180044 =
2017-12-18 12:10 METAR KW99 181710Z AUTO 29009KT 10SM CLR 13/04 A3000 RMK AO2 T01280043 =
2017-12-18 11:50 METAR KW99 181650Z AUTO 26007KT 10SM CLR 12/04 A3001 RMK AO2 T01150040 =
2017-12-18 11:30 METAR KW99 181630Z AUTO 00000KT 10SM CLR 11/03 A3002 RMK AO2 T01070033 =
2017-12-18 11:10 METAR KW99 181610Z AUTO 00000KT 10SM CLR 11/03 A3003 RMK AO2 T01050032 =
2017-12-18 10:50 METAR KW99 181550Z AUTO 00000KT 10SM CLR 09/03 A3005 RMK AO2 T00860026 =
2017-12-18 10:30 METAR KW99 181530Z AUTO 00000KT 10SM SCT070 07/02 A3007 RMK AO2 T00700021 =
2017-12-18 10:10 METAR KW99 181510Z AUTO 00000KT 10SM BKN070 05/02 A3008 RMK AO2 T00460017 =
2017-12-18 09:50 METAR KW99 181450Z AUTO 00000KT 7SM SCT036 SCT050 BKN070 04/02 A3009 RMK AO2
                 T00370015 =
2017-12-18 09:30 METAR KW99 181430Z AUTO 00000KT 7SM SCT034 OVC055 04/02 A3010 RMK AO2 T00350015
                 =
2017-12-18 09:10 METAR KW99 181410Z AUTO 00000KT 7SM OVC034 03/01 A3010 RMK AO2 T00320013 =
2017-12-18 08:50 METAR KW99 181350Z AUTO 00000KT 7SM BKN032 OVC038 03/01 A3010 RMK AO2 T00310014
                 =
2017-12-18 08:30 METAR KW99 181330Z AUTO 00000KT 7SM BKN036 OVC050 03/01 A3011 RMK AO2 T00290011
                 =
2017-12-18 08:10 METAR KW99 181310Z AUTO 00000KT 7SM BKN032 OVC038 03/01 A3010 RMK AO2 T00260014
                 =
2017-12-18 07:50 METAR KW99 181250Z AUTO 00000KT 7SM OVC032 03/01 A3010 RMK AO2 T00250014 =
2017-12-18 07:30 METAR KW99 181230Z AUTO 00000KT 7SM OVC032 02/01 A3010 RMK AO2 T00240014 =
2017-12-18 07:10 METAR KW99 181210Z AUTO 00000KT 7SM OVC030 02/01 A3011 RMK AO2 T00240013 =
2017-12-18 06:50 METAR KW99 181150Z AUTO 00000KT 7SM OVC030 02/02 A3011 RMK AO2 T00240015 10025
                 20020 =
2017-12-18 06:30 METAR KW99 181130Z AUTO 00000KT 7SM OVC030 02/01 A3011 RMK AO2 T00230014 =
2017-12-18 06:10 METAR KW99 181110Z AUTO 00000KT 7SM OVC030 02/01 A3011 RMK AO2 T00230012 =
2017-12-18 05:50 METAR KW99 181050Z AUTO 00000KT 7SM OVC030 02/01 A3010 RMK AO2 T00220010 =
2017-12-18 05:30 METAR KW99 181030Z AUTO 00000KT 7SM OVC032 02/01 A3010 RMK AO2 T00230010 =
2017-12-18 05:10 METAR KW99 181010Z AUTO 00000KT 7SM OVC032 02/01 A3010 RMK AO2 T00210011 =
2017-12-18 04:50 METAR KW99 180950Z AUTO 00000KT 7SM OVC032 02/01 A3010 RMK AO2 T00210011 =
2017-12-18 04:30 METAR KW99 180930Z AUTO 00000KT 7SM OVC034 02/01 A3010 RMK AO2 T00200011 =
2017-12-18 04:10 METAR KW99 180910Z AUTO 00000KT 7SM OVC034 02/01 A3010 RMK AO2 T00210010 =
2017-12-18 03:50 METAR KW99 180850Z AUTO 00000KT 7SM OVC032 02/01 A3011 RMK AO2 T00210009 =
2017-12-18 03:30 METAR KW99 180830Z AUTO 00000KT 7SM OVC032 02/01 A3011 RMK AO2 T00200012 =
2017-12-18 03:10 METAR KW99 180810Z AUTO 00000KT 7SM OVC034 02/01 A3011 RMK AO2 T00210010 =
2017-12-18 02:50 METAR KW99 180750Z AUTO 00000KT 7SM OVC036 02/01 A3011 RMK AO2 T00210009 =
2017-12-18 02:30 METAR KW99 180730Z AUTO 00000KT 7SM BKN036 OVC044 02/01 A3011 RMK AO2 T00200010
                 =
2017-12-18 02:10 METAR KW99 180710Z AUTO 00000KT 7SM OVC036 02/01 A3011 RMK AO2 T00210012 =
2017-12-18 01:50 METAR KW99 180650Z AUTO 00000KT 7SM OVC036 02/01 A3010 RMK AO2 T00210008 =
2017-12-18 01:30 METAR KW99 180630Z AUTO 00000KT 7SM BKN036 OVC060 02/01 A3010 RMK AO2 T00210010
                 =
2017-12-18 01:10 METAR KW99 180610Z AUTO 00000KT 7SM OVC060 02/01 A3011 RMK AO2 T00200007 =
2017-12-18 00:50 METAR KW99 180550Z AUTO 00000KT 7SM SCT035 OVC060 02/01 A3011 RMK AO2 T00210009
                 10040 20017 400571044 =
2017-12-18 00:30 METAR KW99 180530Z AUTO 00000KT 10SM SCT035 BKN043 OVC060 02/01 A3012 RMK AO2
                 T00200008 =
2017-12-18 00:10 METAR KW99 180510Z AUTO 00000KT 10SM BKN041 OVC060 02/01 A3012 RMK AO2 T00230006
                 =
2017-12-17 23:50 METAR KW99 180450Z AUTO 00000KT 10SM SCT041 OVC060 02/01 A3013 RMK AO2 T00220010
                 =
2017-12-17 23:30 METAR KW99 180430Z AUTO 00000KT 10SM OVC060 03/01 A3013 RMK AO2 T00250009 =
2017-12-17 23:10 METAR KW99 180410Z AUTO 00000KT 10SM OVC050 03/01 A3014 RMK AO2 T00300008 =
2017-12-17 22:50 METAR KW99 180350Z AUTO 00000KT 10SM OVC050 03/01 A3014 RMK AO2 T00280011 =
2017-12-17 22:30 METAR KW99 180330Z AUTO 00000KT 10SM OVC050 03/01 A3013 RMK AO2 T00310010 =
2017-12-17 22:10 METAR KW99 180310Z AUTO 00000KT 10SM OVC050 03/01 A3013 RMK AO2 T00280012 =
2017-12-17 21:50 METAR KW99 180250Z AUTO 00000KT 7SM OVC050 03/01 A3014 RMK AO2 T00280012 =
2017-12-17 21:30 METAR KW99 180230Z AUTO 00000KT 10SM OVC060 03/01 A3014 RMK AO2 T00300012 =
2017-12-17 21:10 METAR KW99 180210Z AUTO 00000KT 10SM OVC060 03/01 A3014 RMK AO2 T00300011 =
2017-12-17 20:50 METAR KW99 180150Z AUTO 00000KT 10SM OVC060 04/01 A3014 RMK AO2 T00350010 =
2017-12-17 20:30 METAR KW99 180130Z AUTO 00000KT 10SM OVC060 03/01 A3014 RMK AO2 T00340009 =
2017-12-17 20:10 METAR KW99 180110Z AUTO 00000KT 10SM BKN060 OVC070 03/01 A3014 RMK AO2 T00330006
                 =
2017-12-17 19:50 METAR KW99 180050Z AUTO 00000KT 10SM -RA SCT060 OVC080 03/01 A3014 RMK AO2
                 T00320007 =
2017-12-17 19:30 METAR KW99 180030Z AUTO 00000KT 10SM -RA BKN060 OVC080 04/01 A3014 RMK AO2
                 T00350006 =
2017-12-17 19:10 METAR KW99 180010Z AUTO 00000KT 10SM BKN060 OVC080 04/00 A3015 RMK AO2 T00350001
                 =
2017-12-17 18:50 METAR KW99 172350Z AUTO 00000KT 10SM SCT070 OVC080 04/00 A3014 RMK AO2 T00370000
                 10057 20035 =
2017-12-17 18:30 METAR KW99 172330Z AUTO 00000KT 10SM SCT070 OVC090 04/00 A3014 RMK AO2 T00360004
                 =
2017-12-17 18:10 METAR KW99 172310Z AUTO 00000KT 10SM OVC090 04/00 A3014 RMK AO2 T00400000 =
2017-12-17 17:50 METAR KW99 172250Z AUTO 00000KT 10SM SCT075 OVC090 05/00 A3015 RMK AO2 T00451003
                 =
2017-12-17 17:30 METAR KW99 172230Z AUTO 00000KT 10SM -RA SCT065 OVC090 05/00 A3016 RMK AO2
                 T00451003 =
2017-12-17 17:10 METAR KW99 172210Z AUTO 00000KT 10SM BKN075 OVC090 04/00 A3016 RMK AO2 T00400001
                 =
2017-12-17 16:50 METAR KW99 172150Z AUTO 00000KT 10SM BKN075 OVC090 04/00 A3017 RMK AO2 T00420000
                 =
2017-12-17 16:30 METAR KW99 172130Z AUTO 00000KT 10SM SCT075 OVC090 05/00 A3016 RMK AO2 T00460000
                 =
2017-12-17 16:10 METAR KW99 172110Z AUTO 00000KT 10SM OVC100 05/00 A3014 RMK AO2 T00520004 =
2017-12-17 15:50 METAR KW99 172050Z AUTO 00000KT 10SM OVC100 06/00 A3013 RMK AO2 T00561002 =

Support USWX by starting your Amazon purchase here.